sensor_id;sensor_type;location;lat;lon;timestamp;P1;durP1;ratioP1;P2;durP2;ratioP2
41887;SDS011;63122;52.424;13.458;2023-04-25T00:00:24;5.50;;;2.80;;
41887;SDS011;63122;52.424;13.458;2023-04-25T00:02:40;6.57;;;2.37;;
41887;SDS011;63122;52.424;13.458;2023-04-25T00:04:35;7.27;;;2.63;;
41887;SDS011;63122;52.424;13.458;2023-04-25T00:06:31;5.03;;;2.30;;
41887;SDS011;63122;52.424;13.458;2023-04-25T00:08:28;4.23;;;1.97;;
41887;SDS011;63122;52.424;13.458;2023-04-25T00:10:23;4.20;;;1.90;;
41887;SDS011;63122;52.424;13.458;2023-04-25T00:12:21;2.60;;;1.23;;
41887;SDS011;63122;52.424;13.458;2023-04-25T00:14:17;6.50;;;2.00;;
41887;SDS011;63122;52.424;13.458;2023-04-25T00:16:12;6.57;;;2.33;;
41887;SDS011;63122;52.424;13.458;2023-04-25T00:18:08;3.83;;;1.87;;
41887;SDS011;63122;52.424;13.458;2023-04-25T00:20:05;7.03;;;2.13;;
41887;SDS011;63122;52.424;13.458;2023-04-25T00:22:03;5.40;;;2.00;;
41887;SDS011;63122;52.424;13.458;2023-04-25T00:23:59;5.93;;;1.70;;
41887;SDS011;63122;52.424;13.458;2023-04-25T00:25:55;5.10;;;2.00;;
41887;SDS011;63122;52.424;13.458;2023-04-25T00:27:55;7.23;;;1.57;;
41887;SDS011;63122;52.424;13.458;2023-04-25T00:29:51;5.90;;;1.80;;
41887;SDS011;63122;52.424;13.458;2023-04-25T00:31:46;8.27;;;1.90;;
41887;SDS011;63122;52.424;13.458;2023-04-25T00:33:42;7.93;;;1.97;;
41887;SDS011;63122;52.424;13.458;2023-04-25T00:35:37;10.10;;;2.20;;
41887;SDS011;63122;52.424;13.458;2023-04-25T00:37:33;4.73;;;2.20;;
41887;SDS011;63122;52.424;13.458;2023-04-25T00:39:28;7.47;;;2.57;;
41887;SDS011;63122;52.424;13.458;2023-04-25T00:41:25;9.27;;;2.00;;
41887;SDS011;63122;52.424;13.458;2023-04-25T00:43:24;2.80;;;1.40;;
41887;SDS011;63122;52.424;13.458;2023-04-25T00:45:21;7.40;;;2.10;;
41887;SDS011;63122;52.424;13.458;2023-04-25T00:47:18;7.23;;;2.17;;
41887;SDS011;63122;52.424;13.458;2023-04-25T00:49:14;6.37;;;2.37;;
41887;SDS011;63122;52.424;13.458;2023-04-25T00:51:10;5.40;;;2.23;;
41887;SDS011;63122;52.424;13.458;2023-04-25T00:53:11;5.70;;;2.13;;
41887;SDS011;63122;52.424;13.458;2023-04-25T00:55:06;7.53;;;2.33;;
41887;SDS011;63122;52.424;13.458;2023-04-25T00:57:02;7.77;;;2.00;;
41887;SDS011;63122;52.424;13.458;2023-04-25T00:59:00;13.47;;;2.50;;
41887;SDS011;63122;52.424;13.458;2023-04-25T01:00:56;7.60;;;2.10;;
41887;SDS011;63122;52.424;13.458;2023-04-25T01:02:52;10.43;;;2.43;;
41887;SDS011;63122;52.424;13.458;2023-04-25T01:04:48;10.27;;;2.73;;
41887;SDS011;63122;52.424;13.458;2023-04-25T01:06:43;7.80;;;2.10;;
41887;SDS011;63122;52.424;13.458;2023-04-25T01:08:39;12.67;;;2.83;;
41887;SDS011;63122;52.424;13.458;2023-04-25T01:10:35;12.00;;;2.73;;
41887;SDS011;63122;52.424;13.458;2023-04-25T01:12:31;8.67;;;2.70;;
41887;SDS011;63122;52.424;13.458;2023-04-25T01:14:29;10.90;;;2.73;;
41887;SDS011;63122;52.424;13.458;2023-04-25T01:16:24;8.80;;;2.80;;
41887;SDS011;63122;52.424;13.458;2023-04-25T01:18:20;7.73;;;3.00;;
41887;SDS011;63122;52.424;13.458;2023-04-25T01:20:15;11.27;;;3.10;;
41887;SDS011;63122;52.424;13.458;2023-04-25T01:22:13;7.43;;;2.53;;
41887;SDS011;63122;52.424;13.458;2023-04-25T01:24:10;6.43;;;2.17;;
41887;SDS011;63122;52.424;13.458;2023-04-25T01:26:05;9.23;;;2.57;;
41887;SDS011;63122;52.424;13.458;2023-04-25T01:28:01;9.67;;;2.50;;
41887;SDS011;63122;52.424;13.458;2023-04-25T01:29:56;12.47;;;2.83;;
41887;SDS011;63122;52.424;13.458;2023-04-25T01:31:52;7.00;;;2.10;;
41887;SDS011;63122;52.424;13.458;2023-04-25T01:33:50;7.20;;;2.73;;
41887;SDS011;63122;52.424;13.458;2023-04-25T01:35:48;8.03;;;1.90;;
41887;SDS011;63122;52.424;13.458;2023-04-25T01:37:45;9.97;;;2.70;;
41887;SDS011;63122;52.424;13.458;2023-04-25T01:39:41;10.87;;;2.63;;
41887;SDS011;63122;52.424;13.458;2023-04-25T01:41:36;7.30;;;2.97;;
41887;SDS011;63122;52.424;13.458;2023-04-25T01:43:32;7.83;;;2.60;;
41887;SDS011;63122;52.424;13.458;2023-04-25T01:45:28;10.10;;;2.83;;
41887;SDS011;63122;52.424;13.458;2023-04-25T01:47:24;9.30;;;2.83;;
41887;SDS011;63122;52.424;13.458;2023-04-25T01:49:23;7.27;;;2.93;;
41887;SDS011;63122;52.424;13.458;2023-04-25T01:51:18;7.87;;;2.87;;
41887;SDS011;63122;52.424;13.458;2023-04-25T01:53:17;5.57;;;2.47;;
41887;SDS011;63122;52.424;13.458;2023-04-25T01:55:13;4.17;;;1.47;;
41887;SDS011;63122;52.424;13.458;2023-04-25T01:57:08;7.83;;;3.10;;
41887;SDS011;63122;52.424;13.458;2023-04-25T01:59:04;5.67;;;2.13;;
41887;SDS011;63122;52.424;13.458;2023-04-25T02:01:00;7.47;;;2.77;;
41887;SDS011;63122;52.424;13.458;2023-04-25T02:02:57;4.97;;;1.67;;
41887;SDS011;63122;52.424;13.458;2023-04-25T02:04:53;8.43;;;3.30;;
41887;SDS011;63122;52.424;13.458;2023-04-25T02:06:49;8.13;;;2.53;;
41887;SDS011;63122;52.424;13.458;2023-04-25T02:08:47;9.03;;;2.57;;
41887;SDS011;63122;52.424;13.458;2023-04-25T02:10:42;6.53;;;2.43;;
41887;SDS011;63122;52.424;13.458;2023-04-25T02:12:37;13.93;;;2.23;;
41887;SDS011;63122;52.424;13.458;2023-04-25T02:14:33;6.83;;;2.67;;
41887;SDS011;63122;52.424;13.458;2023-04-25T02:16:28;11.97;;;3.03;;
41887;SDS011;63122;52.424;13.458;2023-04-25T02:18:24;7.53;;;3.00;;
41887;SDS011;63122;52.424;13.458;2023-04-25T02:20:20;9.57;;;3.43;;
41887;SDS011;63122;52.424;13.458;2023-04-25T02:22:16;11.27;;;2.77;;
41887;SDS011;63122;52.424;13.458;2023-04-25T02:24:13;8.57;;;3.10;;
41887;SDS011;63122;52.424;13.458;2023-04-25T02:26:11;9.70;;;3.50;;
41887;SDS011;63122;52.424;13.458;2023-04-25T02:28:06;8.47;;;2.80;;
41887;SDS011;63122;52.424;13.458;2023-04-25T02:30:03;7.57;;;3.10;;
41887;SDS011;63122;52.424;13.458;2023-04-25T02:31:59;8.07;;;3.40;;
41887;SDS011;63122;52.424;13.458;2023-04-25T02:33:55;8.33;;;3.00;;
41887;SDS011;63122;52.424;13.458;2023-04-25T02:35:50;11.70;;;3.30;;
41887;SDS011;63122;52.424;13.458;2023-04-25T02:37:46;7.63;;;2.97;;
41887;SDS011;63122;52.424;13.458;2023-04-25T02:39:44;8.07;;;3.33;;
41887;SDS011;63122;52.424;13.458;2023-04-25T02:41:40;15.70;;;4.03;;
41887;SDS011;63122;52.424;13.458;2023-04-25T02:43:35;8.20;;;3.20;;
41887;SDS011;63122;52.424;13.458;2023-04-25T02:45:30;8.93;;;3.13;;
41887;SDS011;63122;52.424;13.458;2023-04-25T02:47:26;8.13;;;2.80;;
41887;SDS011;63122;52.424;13.458;2023-04-25T02:49:22;8.67;;;3.03;;
41887;SDS011;63122;52.424;13.458;2023-04-25T02:51:17;9.40;;;3.23;;
41887;SDS011;63122;52.424;13.458;2023-04-25T02:53:13;6.80;;;3.00;;
41887;SDS011;63122;52.424;13.458;2023-04-25T02:55:11;6.43;;;3.00;;
41887;SDS011;63122;52.424;13.458;2023-04-25T02:57:06;8.73;;;3.03;;
41887;SDS011;63122;52.424;13.458;2023-04-25T02:59:02;7.97;;;3.20;;
41887;SDS011;63122;52.424;13.458;2023-04-25T03:00:57;7.17;;;2.90;;
41887;SDS011;63122;52.424;13.458;2023-04-25T03:02:52;6.50;;;2.93;;
41887;SDS011;63122;52.424;13.458;2023-04-25T03:04:48;10.33;;;3.17;;
41887;SDS011;63122;52.424;13.458;2023-04-25T03:06:43;8.63;;;3.50;;
41887;SDS011;63122;52.424;13.458;2023-04-25T03:08:38;11.03;;;3.60;;
41887;SDS011;63122;52.424;13.458;2023-04-25T03:10:38;7.10;;;3.07;;
41887;SDS011;63122;52.424;13.458;2023-04-25T03:12:34;8.80;;;3.47;;
41887;SDS011;63122;52.424;13.458;2023-04-25T03:14:29;6.50;;;3.17;;
41887;SDS011;63122;52.424;13.458;2023-04-25T03:16:24;6.07;;;3.10;;
41887;SDS011;63122;52.424;13.458;2023-04-25T03:18:19;11.67;;;3.90;;
41887;SDS011;63122;52.424;13.458;2023-04-25T03:20:15;7.63;;;3.37;;
41887;SDS011;63122;52.424;13.458;2023-04-25T03:22:10;7.73;;;3.50;;
41887;SDS011;63122;52.424;13.458;2023-04-25T03:24:05;8.43;;;3.30;;
41887;SDS011;63122;52.424;13.458;2023-04-25T03:26:05;7.50;;;3.00;;
41887;SDS011;63122;52.424;13.458;2023-04-25T03:28:00;6.73;;;3.43;;
41887;SDS011;63122;52.424;13.458;2023-04-25T03:29:55;10.33;;;3.47;;
41887;SDS011;63122;52.424;13.458;2023-04-25T03:31:51;4.57;;;2.53;;
41887;SDS011;63122;52.424;13.458;2023-04-25T03:33:46;11.67;;;3.50;;
41887;SDS011;63122;52.424;13.458;2023-04-25T03:35:42;10.57;;;3.83;;
41887;SDS011;63122;52.424;13.458;2023-04-25T03:37:37;18.40;;;3.80;;
41887;SDS011;63122;52.424;13.458;2023-04-25T03:39:32;10.60;;;3.80;;
41887;SDS011;63122;52.424;13.458;2023-04-25T03:41:30;8.53;;;3.30;;
41887;SDS011;63122;52.424;13.458;2023-04-25T03:43:25;11.13;;;3.30;;
41887;SDS011;63122;52.424;13.458;2023-04-25T03:45:20;7.47;;;3.23;;
41887;SDS011;63122;52.424;13.458;2023-04-25T03:47:21;11.47;;;2.63;;
41887;SDS011;63122;52.424;13.458;2023-04-25T03:49:16;8.83;;;3.67;;
41887;SDS011;63122;52.424;13.458;2023-04-25T03:51:11;8.57;;;3.60;;
41887;SDS011;63122;52.424;13.458;2023-04-25T03:53:07;8.83;;;3.77;;
41887;SDS011;63122;52.424;13.458;2023-04-25T03:55:03;14.90;;;3.77;;
41887;SDS011;63122;52.424;13.458;2023-04-25T03:57:01;10.57;;;4.07;;
41887;SDS011;63122;52.424;13.458;2023-04-25T03:58:57;16.40;;;3.20;;
41887;SDS011;63122;52.424;13.458;2023-04-25T04:00:52;7.30;;;3.30;;
41887;SDS011;63122;52.424;13.458;2023-04-25T04:02:48;9.27;;;3.70;;
41887;SDS011;63122;52.424;13.458;2023-04-25T04:04:43;19.70;;;4.40;;
41887;SDS011;63122;52.424;13.458;2023-04-25T04:06:39;10.37;;;3.87;;
41887;SDS011;63122;52.424;13.458;2023-04-25T04:08:34;8.57;;;3.80;;
41887;SDS011;63122;52.424;13.458;2023-04-25T04:10:30;14.80;;;3.80;;
41887;SDS011;63122;52.424;13.458;2023-04-25T04:12:27;8.43;;;3.50;;
41887;SDS011;63122;52.424;13.458;2023-04-25T04:14:23;7.07;;;3.87;;
41887;SDS011;63122;52.424;13.458;2023-04-25T04:16:19;13.80;;;4.70;;
41887;SDS011;63122;52.424;13.458;2023-04-25T04:18:15;10.10;;;3.07;;
41887;SDS011;63122;52.424;13.458;2023-04-25T04:20:10;10.77;;;3.90;;
41887;SDS011;63122;52.424;13.458;2023-04-25T04:22:05;9.23;;;3.97;;
41887;SDS011;63122;52.424;13.458;2023-04-25T04:24:00;9.53;;;3.73;;
41887;SDS011;63122;52.424;13.458;2023-04-25T04:25:57;10.13;;;3.50;;
41887;SDS011;63122;52.424;13.458;2023-04-25T04:27:55;7.40;;;3.87;;
41887;SDS011;63122;52.424;13.458;2023-04-25T04:29:51;8.60;;;2.97;;
41887;SDS011;63122;52.424;13.458;2023-04-25T04:31:47;18.40;;;4.27;;
41887;SDS011;63122;52.424;13.458;2023-04-25T04:33:43;11.33;;;3.47;;
41887;SDS011;63122;52.424;13.458;2023-04-25T04:35:39;7.77;;;3.97;;
41887;SDS011;63122;52.424;13.458;2023-04-25T04:37:36;11.03;;;4.23;;
41887;SDS011;63122;52.424;13.458;2023-04-25T04:39:31;12.27;;;4.73;;
41887;SDS011;63122;52.424;13.458;2023-04-25T04:41:27;11.87;;;4.00;;
41887;SDS011;63122;52.424;13.458;2023-04-25T04:43:25;7.97;;;3.70;;
41887;SDS011;63122;52.424;13.458;2023-04-25T04:45:21;10.93;;;4.00;;
41887;SDS011;63122;52.424;13.458;2023-04-25T04:47:17;12.37;;;4.03;;
41887;SDS011;63122;52.424;13.458;2023-04-25T04:49:13;14.53;;;4.23;;
41887;SDS011;63122;52.424;13.458;2023-04-25T04:51:09;10.77;;;3.90;;
41887;SDS011;63122;52.424;13.458;2023-04-25T04:53:04;10.53;;;3.57;;
41887;SDS011;63122;52.424;13.458;2023-04-25T04:55:00;9.33;;;3.97;;
41887;SDS011;63122;52.424;13.458;2023-04-25T04:56:55;13.93;;;3.93;;
41887;SDS011;63122;52.424;13.458;2023-04-25T04:58:54;17.43;;;4.63;;
41887;SDS011;63122;52.424;13.458;2023-04-25T05:00:49;11.03;;;4.23;;
41887;SDS011;63122;52.424;13.458;2023-04-25T05:02:45;8.87;;;3.57;;
41887;SDS011;63122;52.424;13.458;2023-04-25T05:04:40;17.13;;;4.53;;
41887;SDS011;63122;52.424;13.458;2023-04-25T05:06:36;13.47;;;4.17;;
41887;SDS011;63122;52.424;13.458;2023-04-25T05:08:32;14.17;;;4.50;;
41887;SDS011;63122;52.424;13.458;2023-04-25T05:10:27;12.37;;;4.20;;
41887;SDS011;63122;52.424;13.458;2023-04-25T05:12:23;11.83;;;4.40;;
41887;SDS011;63122;52.424;13.458;2023-04-25T05:14:20;15.40;;;4.43;;
41887;SDS011;63122;52.424;13.458;2023-04-25T05:16:16;13.53;;;4.80;;
41887;SDS011;63122;52.424;13.458;2023-04-25T05:18:12;11.73;;;4.80;;
41887;SDS011;63122;52.424;13.458;2023-04-25T05:20:08;9.27;;;4.77;;
41887;SDS011;63122;52.424;13.458;2023-04-25T05:22:03;11.03;;;4.47;;
41887;SDS011;63122;52.424;13.458;2023-04-25T05:23:59;10.50;;;4.57;;
41887;SDS011;63122;52.424;13.458;2023-04-25T05:25:54;8.43;;;4.30;;
41887;SDS011;63122;52.424;13.458;2023-04-25T05:27:49;9.57;;;4.30;;
41887;SDS011;63122;52.424;13.458;2023-04-25T05:29:47;17.00;;;4.67;;
41887;SDS011;63122;52.424;13.458;2023-04-25T05:31:43;14.37;;;4.20;;
41887;SDS011;63122;52.424;13.458;2023-04-25T05:33:40;12.37;;;4.37;;
41887;SDS011;63122;52.424;13.458;2023-04-25T05:35:35;14.23;;;4.00;;
41887;SDS011;63122;52.424;13.458;2023-04-25T05:37:30;10.47;;;4.03;;
41887;SDS011;63122;52.424;13.458;2023-04-25T05:39:26;12.13;;;4.20;;
41887;SDS011;63122;52.424;13.458;2023-04-25T05:41:21;13.03;;;4.13;;
41887;SDS011;63122;52.424;13.458;2023-04-25T05:43:16;18.50;;;4.30;;
41887;SDS011;63122;52.424;13.458;2023-04-25T05:45:14;9.37;;;4.23;;
41887;SDS011;63122;52.424;13.458;2023-04-25T05:47:11;13.33;;;4.93;;
41887;SDS011;63122;52.424;13.458;2023-04-25T05:49:06;10.67;;;3.57;;
41887;SDS011;63122;52.424;13.458;2023-04-25T05:51:02;12.33;;;3.83;;
41887;SDS011;63122;52.424;13.458;2023-04-25T05:52:57;13.33;;;4.63;;
41887;SDS011;63122;52.424;13.458;2023-04-25T05:54:53;10.80;;;4.47;;
41887;SDS011;63122;52.424;13.458;2023-04-25T05:56:48;10.63;;;3.50;;
41887;SDS011;63122;52.424;13.458;2023-04-25T05:58:43;13.27;;;4.17;;
41887;SDS011;63122;52.424;13.458;2023-04-25T06:00:41;13.97;;;5.10;;
41887;SDS011;63122;52.424;13.458;2023-04-25T06:02:36;13.93;;;4.60;;
41887;SDS011;63122;52.424;13.458;2023-04-25T06:04:32;12.20;;;4.80;;
41887;SDS011;63122;52.424;13.458;2023-04-25T06:06:28;9.67;;;3.83;;
41887;SDS011;63122;52.424;13.458;2023-04-25T06:08:23;11.07;;;3.90;;
41887;SDS011;63122;52.424;13.458;2023-04-25T06:10:19;12.80;;;5.20;;
41887;SDS011;63122;52.424;13.458;2023-04-25T06:12:14;13.93;;;4.57;;
41887;SDS011;63122;52.424;13.458;2023-04-25T06:14:09;18.43;;;5.13;;
41887;SDS011;63122;52.424;13.458;2023-04-25T06:16:07;10.73;;;4.73;;
41887;SDS011;63122;52.424;13.458;2023-04-25T06:18:03;15.57;;;4.87;;
41887;SDS011;63122;52.424;13.458;2023-04-25T06:19:58;17.10;;;5.17;;
41887;SDS011;63122;52.424;13.458;2023-04-25T06:21:56;11.73;;;4.57;;
41887;SDS011;63122;52.424;13.458;2023-04-25T06:23:51;11.27;;;4.97;;
41887;SDS011;63122;52.424;13.458;2023-04-25T06:25:47;15.70;;;4.97;;
41887;SDS011;63122;52.424;13.458;2023-04-25T06:27:42;13.50;;;4.70;;
41887;SDS011;63122;52.424;13.458;2023-04-25T06:29:37;10.93;;;4.70;;
41887;SDS011;63122;52.424;13.458;2023-04-25T06:31:35;18.07;;;4.93;;
41887;SDS011;63122;52.424;13.458;2023-04-25T06:33:30;12.17;;;4.63;;
41887;SDS011;63122;52.424;13.458;2023-04-25T06:35:25;13.33;;;4.33;;
41887;SDS011;63122;52.424;13.458;2023-04-25T06:37:21;11.60;;;4.67;;
41887;SDS011;63122;52.424;13.458;2023-04-25T06:39:16;11.20;;;3.50;;
41887;SDS011;63122;52.424;13.458;2023-04-25T06:41:12;9.40;;;4.73;;
41887;SDS011;63122;52.424;13.458;2023-04-25T06:43:07;12.63;;;5.00;;
41887;SDS011;63122;52.424;13.458;2023-04-25T06:45:02;17.07;;;5.30;;
41887;SDS011;63122;52.424;13.458;2023-04-25T06:47:01;13.77;;;4.63;;
41887;SDS011;63122;52.424;13.458;2023-04-25T06:48:57;12.80;;;4.63;;
41887;SDS011;63122;52.424;13.458;2023-04-25T06:50:52;10.23;;;4.47;;
41887;SDS011;63122;52.424;13.458;2023-04-25T06:52:48;11.63;;;4.50;;
41887;SDS011;63122;52.424;13.458;2023-04-25T06:54:43;9.70;;;4.37;;
41887;SDS011;63122;52.424;13.458;2023-04-25T06:56:39;16.70;;;5.50;;
41887;SDS011;63122;52.424;13.458;2023-04-25T06:58:34;13.10;;;4.90;;
41887;SDS011;63122;52.424;13.458;2023-04-25T07:00:29;13.60;;;4.47;;
41887;SDS011;63122;52.424;13.458;2023-04-25T07:02:28;13.50;;;4.37;;
41887;SDS011;63122;52.424;13.458;2023-04-25T07:04:23;16.70;;;4.70;;
41887;SDS011;63122;52.424;13.458;2023-04-25T07:06:19;11.17;;;5.30;;
41887;SDS011;63122;52.424;13.458;2023-04-25T07:08:14;9.83;;;4.67;;
41887;SDS011;63122;52.424;13.458;2023-04-25T07:10:09;16.67;;;4.97;;
41887;SDS011;63122;52.424;13.458;2023-04-25T07:12:05;11.63;;;5.43;;
41887;SDS011;63122;52.424;13.458;2023-04-25T07:14:00;11.00;;;4.50;;
41887;SDS011;63122;52.424;13.458;2023-04-25T07:15:55;14.23;;;4.73;;
41887;SDS011;63122;52.424;13.458;2023-04-25T07:17:53;9.87;;;4.67;;
41887;SDS011;63122;52.424;13.458;2023-04-25T07:19:49;17.77;;;5.10;;
41887;SDS011;63122;52.424;13.458;2023-04-25T07:21:44;9.70;;;4.23;;
41887;SDS011;63122;52.424;13.458;2023-04-25T07:23:39;9.13;;;4.27;;
41887;SDS011;63122;52.424;13.458;2023-04-25T07:25:34;9.47;;;3.77;;
41887;SDS011;63122;52.424;13.458;2023-04-25T07:27:30;9.30;;;3.97;;
41887;SDS011;63122;52.424;13.458;2023-04-25T07:29:25;8.57;;;3.87;;
41887;SDS011;63122;52.424;13.458;2023-04-25T07:31:22;7.17;;;3.60;;
41887;SDS011;63122;52.424;13.458;2023-04-25T07:33:20;9.50;;;3.60;;
41887;SDS011;63122;52.424;13.458;2023-04-25T07:35:15;12.23;;;3.67;;
41887;SDS011;63122;52.424;13.458;2023-04-25T07:37:11;13.33;;;4.37;;
41887;SDS011;63122;52.424;13.458;2023-04-25T07:39:06;9.63;;;3.93;;
41887;SDS011;63122;52.424;13.458;2023-04-25T07:41:02;10.63;;;3.80;;
41887;SDS011;63122;52.424;13.458;2023-04-25T07:42:58;10.30;;;4.30;;
41887;SDS011;63122;52.424;13.458;2023-04-25T07:44:53;8.67;;;3.40;;
41887;SDS011;63122;52.424;13.458;2023-04-25T07:46:48;10.20;;;3.80;;
41887;SDS011;63122;52.424;13.458;2023-04-25T07:48:46;11.53;;;4.50;;
41887;SDS011;63122;52.424;13.458;2023-04-25T07:50:42;9.33;;;3.93;;
41887;SDS011;63122;52.424;13.458;2023-04-25T07:52:37;13.53;;;4.17;;
41887;SDS011;63122;52.424;13.458;2023-04-25T07:54:32;14.43;;;3.60;;
41887;SDS011;63122;52.424;13.458;2023-04-25T07:56:27;16.47;;;4.20;;
41887;SDS011;63122;52.424;13.458;2023-04-25T07:58:42;14.47;;;4.23;;
41887;SDS011;63122;52.424;13.458;2023-04-25T08:00:38;18.23;;;4.50;;
41887;SDS011;63122;52.424;13.458;2023-04-25T08:02:33;14.80;;;3.87;;
41887;SDS011;63122;52.424;13.458;2023-04-25T08:04:31;20.53;;;5.27;;
41887;SDS011;63122;52.424;13.458;2023-04-25T08:06:27;23.47;;;4.80;;
41887;SDS011;63122;52.424;13.458;2023-04-25T08:08:23;17.30;;;4.50;;
41887;SDS011;63122;52.424;13.458;2023-04-25T08:10:19;18.33;;;4.77;;
41887;SDS011;63122;52.424;13.458;2023-04-25T08:12:14;15.50;;;3.93;;
41887;SDS011;63122;52.424;13.458;2023-04-25T08:14:11;15.07;;;4.13;;
41887;SDS011;63122;52.424;13.458;2023-04-25T08:16:06;17.43;;;5.57;;
41887;SDS011;63122;52.424;13.458;2023-04-25T08:18:02;25.53;;;4.40;;
41887;SDS011;63122;52.424;13.458;2023-04-25T08:20:00;19.03;;;4.43;;
41887;SDS011;63122;52.424;13.458;2023-04-25T08:21:57;18.20;;;3.73;;
41887;SDS011;63122;52.424;13.458;2023-04-25T08:23:52;25.07;;;4.33;;
41887;SDS011;63122;52.424;13.458;2023-04-25T08:25:47;19.90;;;4.83;;
41887;SDS011;63122;52.424;13.458;2023-04-25T08:27:43;20.23;;;4.33;;
41887;SDS011;63122;52.424;13.458;2023-04-25T08:29:38;17.93;;;4.50;;
41887;SDS011;63122;52.424;13.458;2023-04-25T08:31:33;15.73;;;3.57;;
41887;SDS011;63122;52.424;13.458;2023-04-25T08:33:29;22.70;;;3.83;;
41887;SDS011;63122;52.424;13.458;2023-04-25T08:35:27;16.97;;;4.57;;
41887;SDS011;63122;52.424;13.458;2023-04-25T08:37:22;20.37;;;4.10;;
41887;SDS011;63122;52.424;13.458;2023-04-25T08:39:17;25.57;;;4.53;;
41887;SDS011;63122;52.424;13.458;2023-04-25T08:41:13;19.53;;;4.10;;
41887;SDS011;63122;52.424;13.458;2023-04-25T08:43:09;18.40;;;4.17;;
41887;SDS011;63122;52.424;13.458;2023-04-25T08:45:09;24.13;;;4.07;;
41887;SDS011;63122;52.424;13.458;2023-04-25T08:47:05;21.40;;;4.20;;
41887;SDS011;63122;52.424;13.458;2023-04-25T08:49:01;18.57;;;3.40;;
41887;SDS011;63122;52.424;13.458;2023-04-25T08:50:59;22.77;;;3.87;;
41887;SDS011;63122;52.424;13.458;2023-04-25T08:52:57;18.43;;;4.17;;
41887;SDS011;63122;52.424;13.458;2023-04-25T08:54:59;15.30;;;3.77;;
41887;SDS011;63122;52.424;13.458;2023-04-25T08:56:57;10.33;;;2.23;;
41887;SDS011;63122;52.424;13.458;2023-04-25T08:58:56;13.87;;;3.33;;
41887;SDS011;63122;52.424;13.458;2023-04-25T09:00:53;16.20;;;3.60;;
41887;SDS011;63122;52.424;13.458;2023-04-25T09:02:49;19.63;;;3.87;;
41887;SDS011;63122;52.424;13.458;2023-04-25T09:04:45;15.67;;;2.83;;
41887;SDS011;63122;52.424;13.458;2023-04-25T09:06:43;11.40;;;3.10;;
41887;SDS011;63122;52.424;13.458;2023-04-25T09:08:39;14.97;;;3.63;;
41887;SDS011;63122;52.424;13.458;2023-04-25T09:10:34;15.43;;;3.47;;
41887;SDS011;63122;52.424;13.458;2023-04-25T09:12:30;17.80;;;3.17;;
41887;SDS011;63122;52.424;13.458;2023-04-25T09:14:26;12.77;;;2.93;;
41887;SDS011;63122;52.424;13.458;2023-04-25T09:16:21;13.73;;;3.50;;
41887;SDS011;63122;52.424;13.458;2023-04-25T09:18:28;17.27;;;3.20;;
41887;SDS011;63122;52.424;13.458;2023-04-25T09:20:27;21.20;;;3.70;;
41887;SDS011;63122;52.424;13.458;2023-04-25T09:22:28;17.73;;;3.50;;
41887;SDS011;63122;52.424;13.458;2023-04-25T09:24:33;22.60;;;4.17;;
41887;SDS011;63122;52.424;13.458;2023-04-25T09:26:31;18.60;;;4.00;;
41887;SDS011;63122;52.424;13.458;2023-04-25T09:28:26;10.70;;;2.53;;
41887;SDS011;63122;52.424;13.458;2023-04-25T09:30:28;22.77;;;3.37;;
41887;SDS011;63122;52.424;13.458;2023-04-25T09:32:25;18.90;;;3.87;;
41887;SDS011;63122;52.424;13.458;2023-04-25T09:34:20;14.00;;;3.63;;
41887;SDS011;63122;52.424;13.458;2023-04-25T09:36:16;10.17;;;2.40;;
41887;SDS011;63122;52.424;13.458;2023-04-25T09:38:18;11.80;;;3.27;;
41887;SDS011;63122;52.424;13.458;2023-04-25T09:40:13;16.23;;;2.90;;
41887;SDS011;63122;52.424;13.458;2023-04-25T09:42:08;8.67;;;2.80;;
41887;SDS011;63122;52.424;13.458;2023-04-25T09:44:04;15.27;;;3.30;;
41887;SDS011;63122;52.424;13.458;2023-04-25T09:45:59;11.33;;;2.67;;
41887;SDS011;63122;52.424;13.458;2023-04-25T09:47:55;14.90;;;3.57;;
41887;SDS011;63122;52.424;13.458;2023-04-25T09:49:51;16.03;;;3.30;;
41887;SDS011;63122;52.424;13.458;2023-04-25T09:51:53;14.43;;;2.87;;
41887;SDS011;63122;52.424;13.458;2023-04-25T09:53:54;17.37;;;2.80;;
41887;SDS011;63122;52.424;13.458;2023-04-25T09:55:50;15.27;;;2.90;;
41887;SDS011;63122;52.424;13.458;2023-04-25T09:58:01;20.67;;;4.10;;
41887;SDS011;63122;52.424;13.458;2023-04-25T10:00:06;20.53;;;3.30;;
41887;SDS011;63122;52.424;13.458;2023-04-25T10:02:09;13.47;;;3.27;;
41887;SDS011;63122;52.424;13.458;2023-04-25T10:04:05;14.03;;;3.93;;
41887;SDS011;63122;52.424;13.458;2023-04-25T10:06:06;18.83;;;3.90;;
41887;SDS011;63122;52.424;13.458;2023-04-25T10:08:03;15.93;;;3.63;;
41887;SDS011;63122;52.424;13.458;2023-04-25T10:10:03;19.20;;;2.73;;
41887;SDS011;63122;52.424;13.458;2023-04-25T10:12:00;16.33;;;3.93;;
41887;SDS011;63122;52.424;13.458;2023-04-25T10:13:55;17.07;;;3.20;;
41887;SDS011;63122;52.424;13.458;2023-04-25T10:15:53;26.00;;;4.50;;
41887;SDS011;63122;52.424;13.458;2023-04-25T10:17:49;15.93;;;2.40;;
41887;SDS011;63122;52.424;13.458;2023-04-25T10:19:46;13.43;;;2.90;;
41887;SDS011;63122;52.424;13.458;2023-04-25T10:21:44;11.83;;;2.90;;
41887;SDS011;63122;52.424;13.458;2023-04-25T10:23:44;14.97;;;3.37;;
41887;SDS011;63122;52.424;13.458;2023-04-25T10:25:43;15.10;;;2.80;;
41887;SDS011;63122;52.424;13.458;2023-04-25T10:27:39;16.73;;;3.40;;
41887;SDS011;63122;52.424;13.458;2023-04-25T10:29:35;16.73;;;3.60;;
41887;SDS011;63122;52.424;13.458;2023-04-25T10:31:31;11.37;;;2.37;;
41887;SDS011;63122;52.424;13.458;2023-04-25T10:33:30;10.83;;;2.77;;
41887;SDS011;63122;52.424;13.458;2023-04-25T10:35:29;15.67;;;2.90;;
41887;SDS011;63122;52.424;13.458;2023-04-25T10:37:25;10.57;;;2.73;;
41887;SDS011;63122;52.424;13.458;2023-04-25T10:39:21;11.47;;;3.10;;
41887;SDS011;63122;52.424;13.458;2023-04-25T10:41:20;15.10;;;3.10;;
41887;SDS011;63122;52.424;13.458;2023-04-25T10:45:31;16.60;;;2.90;;
41887;SDS011;63122;52.424;13.458;2023-04-25T10:47:46;14.20;;;2.90;;
41887;SDS011;63122;52.424;13.458;2023-04-25T10:49:41;11.90;;;2.37;;
41887;SDS011;63122;52.424;13.458;2023-04-25T10:51:37;10.60;;;2.63;;
41887;SDS011;63122;52.424;13.458;2023-04-25T10:53:46;13.67;;;2.77;;
41887;SDS011;63122;52.424;13.458;2023-04-25T10:56:13;11.43;;;2.60;;
41887;SDS011;63122;52.424;13.458;2023-04-25T10:58:27;15.90;;;2.83;;
41887;SDS011;63122;52.424;13.458;2023-04-25T11:00:23;11.07;;;2.53;;
41887;SDS011;63122;52.424;13.458;2023-04-25T11:02:41;14.60;;;3.03;;
41887;SDS011;63122;52.424;13.458;2023-04-25T11:04:39;9.33;;;2.67;;
41887;SDS011;63122;52.424;13.458;2023-04-25T11:06:37;7.83;;;2.30;;
41887;SDS011;63122;52.424;13.458;2023-04-25T11:08:47;15.90;;;3.03;;
41887;SDS011;63122;52.424;13.458;2023-04-25T11:10:44;11.93;;;3.43;;
41887;SDS011;63122;52.424;13.458;2023-04-25T11:12:42;19.40;;;2.57;;
41887;SDS011;63122;52.424;13.458;2023-04-25T11:14:40;8.77;;;2.70;;
41887;SDS011;63122;52.424;13.458;2023-04-25T11:16:36;10.37;;;2.97;;
41887;SDS011;63122;52.424;13.458;2023-04-25T11:18:31;11.80;;;3.43;;
41887;SDS011;63122;52.424;13.458;2023-04-25T11:20:28;17.20;;;2.70;;
41887;SDS011;63122;52.424;13.458;2023-04-25T11:22:23;11.97;;;2.47;;
41887;SDS011;63122;52.424;13.458;2023-04-25T11:24:19;10.50;;;2.50;;
41887;SDS011;63122;52.424;13.458;2023-04-25T11:26:14;8.60;;;2.37;;
41887;SDS011;63122;52.424;13.458;2023-04-25T11:28:10;10.20;;;2.43;;